Time;durP1;ratioP1;P1;durP2;ratioP2;P2;SDS_P1;SDS_P2;PMS_P1;PMS_P2;Temp;Humidity;BMP_temperature;BMP_pressure;BME280_temperature;BME280_humidity;BME280_pressure;Samples;Min_cycle;Max_cycle;Signal;HPM_P1;HPM_P2
2023/08/06 00:00:15;;;;;;;8.25;5.82;;;;;;;;;;4965564;28;20258;-71
2023/08/06 00:02:40;;;;;;;10.38;6.40;;;;;;;;;;4968561;28;20239;-71
2023/08/06 00:05:06;;;;;;;6.78;5.70;;;;;;;;;;4968787;28;20763;-72
2023/08/06 00:07:31;;;;;;;9.60;6.00;;;;;;;;;;4970331;28;20195;-72
2023/08/06 00:09:56;;;;;;;12.02;5.93;;;;;;;;;;4967988;28;20491;-72
2023/08/06 00:12:22;;;;;;;6.63;4.82;;;;;;;;;;4967180;28;21081;-71
2023/08/06 00:14:50;;;;;;;8.30;5.65;;;;;;;;;;4969569;28;20180;-70
2023/08/06 00:17:16;;;;;;;7.32;5.50;;;;;;;;;;4968782;28;20223;-70
2023/08/06 00:19:41;;;;;;;7.43;6.20;;;;;;;;;;4969666;28;20606;-70
2023/08/06 00:22:06;;;;;;;9.45;6.70;;;;;;;;;;4968853;28;20897;-71
2023/08/06 00:24:32;;;;;;;8.05;5.38;;;;;;;;;;4967292;28;20733;-71
2023/08/06 00:26:57;;;;;;;13.93;5.93;;;;;;;;;;4968526;28;20180;-73
2023/08/06 00:29:22;;;;;;;7.45;5.65;;;;;;;;;;4967893;28;20192;-71
2023/08/06 00:31:47;;;;;;;7.60;5.00;;;;;;;;;;4969769;28;20215;-71
2023/08/06 00:34:13;;;;;;;12.98;5.43;;;;;;;;;;4967866;28;20188;-72
2023/08/06 00:36:38;;;;;;;7.60;5.28;;;;;;;;;;4964424;28;20211;-71
2023/08/06 00:39:03;;;;;;;10.82;5.43;;;;;;;;;;4968537;28;20192;-71
2023/08/06 00:41:28;;;;;;;7.47;5.82;;;;;;;;;;4967210;28;20402;-71
2023/08/06 00:43:54;;;;;;;7.15;5.50;;;;;;;;;;4966578;28;20243;-71
2023/08/06 00:46:19;;;;;;;6.00;5.22;;;;;;;;;;4967817;28;20186;-71
2023/08/06 00:48:44;;;;;;;8.13;5.75;;;;;;;;;;4968602;28;20192;-71
2023/08/06 00:51:10;;;;;;;7.35;4.95;;;;;;;;;;4967338;28;20631;-71
2023/08/06 00:53:35;;;;;;;8.00;5.40;;;;;;;;;;4967799;28;20207;-70
2023/08/06 00:56:02;;;;;;;8.02;5.47;;;;;;;;;;4960767;28;20269;-70
2023/08/06 00:58:27;;;;;;;10.88;5.55;;;;;;;;;;4966253;28;21001;-70
2023/08/06 01:00:52;;;;;;;6.07;5.18;;;;;;;;;;4969354;28;20211;-70
2023/08/06 01:03:17;;;;;;;9.07;5.80;;;;;;;;;;4969481;28;20212;-70
2023/08/06 01:05:43;;;;;;;7.70;5.53;;;;;;;;;;4967507;28;20181;-71
2023/08/06 01:08:17;;;;;;;9.00;5.55;;;;;;;;;;4964771;28;20207;-71
2023/08/06 01:11:01;;;;;;;8.50;5.50;;;;;;;;;;4968571;28;20211;-71
2023/08/06 01:13:39;;;;;;;8.02;4.50;;;;;;;;;;4965807;28;20722;-71
2023/08/06 01:16:05;;;;;;;8.50;5.78;;;;;;;;;;4967929;28;20662;-71
2023/08/06 01:18:31;;;;;;;8.23;5.65;;;;;;;;;;4965597;28;20192;-70
2023/08/06 01:20:56;;;;;;;8.95;5.10;;;;;;;;;;4967124;28;20296;-70
2023/08/06 01:23:22;;;;;;;5.93;4.82;;;;;;;;;;4968987;28;20195;-71
2023/08/06 01:25:53;;;;;;;8.38;5.50;;;;;;;;;;4966798;28;21034;-71
2023/08/06 01:28:23;;;;;;;8.25;6.28;;;;;;;;;;4968755;28;20180;-71
2023/08/06 01:30:49;;;;;;;6.75;5.53;;;;;;;;;;4967601;28;20955;-70
2023/08/06 01:33:16;;;;;;;7.65;5.40;;;;;;;;;;4968010;28;20188;-70
2023/08/06 01:35:42;;;;;;;9.13;5.55;;;;;;;;;;4966131;28;20200;-70
2023/08/06 01:38:07;;;;;;;7.85;5.32;;;;;;;;;;4963848;28;20887;-71
2023/08/06 01:40:34;;;;;;;6.20;5.00;;;;;;;;;;4966383;28;20694;-71
2023/08/06 01:42:59;;;;;;;7.68;5.47;;;;;;;;;;4967789;28;20366;-71
2023/08/06 01:45:24;;;;;;;7.00;5.13;;;;;;;;;;4968428;28;20835;-70
2023/08/06 01:47:49;;;;;;;7.25;5.40;;;;;;;;;;4967079;28;20180;-70
2023/08/06 01:50:15;;;;;;;8.25;5.80;;;;;;;;;;4963754;28;20951;-71
2023/08/06 01:52:40;;;;;;;7.55;5.43;;;;;;;;;;4966071;28;20191;-70
2023/08/06 01:55:05;;;;;;;6.18;4.90;;;;;;;;;;4964438;28;20263;-70
2023/08/06 01:57:30;;;;;;;9.65;5.30;;;;;;;;;;4964613;28;20773;-70
2023/08/06 01:59:55;;;;;;;7.80;5.70;;;;;;;;;;4967587;28;20199;-71
2023/08/06 02:02:21;;;;;;;8.00;5.55;;;;;;;;;;4968838;28;20196;-71
2023/08/06 02:04:46;;;;;;;8.05;4.95;;;;;;;;;;4962279;28;20203;-71
2023/08/06 02:07:11;;;;;;;8.38;5.78;;;;;;;;;;4965770;28;20180;-71
2023/08/06 02:09:36;;;;;;;8.07;5.78;;;;;;;;;;4964653;28;20629;-70
2023/08/06 02:12:02;;;;;;;7.22;4.85;;;;;;;;;;4963412;28;20942;-70
2023/08/06 02:14:27;;;;;;;8.18;4.82;;;;;;;;;;4967212;28;20623;-71
2023/08/06 02:16:52;;;;;;;7.07;5.07;;;;;;;;;;4965605;28;20195;-70
2023/08/06 02:19:18;;;;;;;10.57;4.88;;;;;;;;;;4965994;28;20311;-70
2023/08/06 02:21:43;;;;;;;7.07;5.05;;;;;;;;;;4967439;28;20213;-71
2023/08/06 02:24:08;;;;;;;7.82;5.25;;;;;;;;;;4967836;28;20621;-71
2023/08/06 02:26:33;;;;;;;8.43;5.20;;;;;;;;;;4966989;28;20195;-72
2023/08/06 02:28:58;;;;;;;7.45;5.10;;;;;;;;;;4966860;28;20184;-72
2023/08/06 02:31:24;;;;;;;10.35;4.68;;;;;;;;;;4990758;23;20881;-72
2023/08/06 02:33:49;;;;;;;8.65;5.40;;;;;;;;;;5004819;28;20783;-72
2023/08/06 02:36:14;;;;;;;7.13;5.05;;;;;;;;;;5005252;28;20656;-72
2023/08/06 02:38:39;;;;;;;8.20;5.32;;;;;;;;;;5006687;28;20206;-71
2023/08/06 02:41:05;;;;;;;7.60;5.00;;;;;;;;;;4997256;28;20214;-71
2023/08/06 02:43:30;;;;;;;9.77;5.40;;;;;;;;;;4989474;28;20298;-72
2023/08/06 02:45:59;;;;;;;9.25;4.97;;;;;;;;;;4991189;28;20184;-72
2023/08/06 02:48:24;;;;;;;7.85;5.38;;;;;;;;;;4991016;28;20554;-72
2023/08/06 02:50:49;;;;;;;8.90;4.90;;;;;;;;;;4989776;28;20207;-72
2023/08/06 02:53:14;;;;;;;6.88;5.22;;;;;;;;;;4991040;28;20179;-72
2023/08/06 02:55:44;;;;;;;6.30;5.18;;;;;;;;;;4991404;28;20184;-72
2023/08/06 02:58:10;;;;;;;8.82;5.30;;;;;;;;;;4988200;28;20181;-72
2023/08/06 03:00:35;;;;;;;8.32;4.68;;;;;;;;;;4991116;28;20183;-72
2023/08/06 03:03:00;;;;;;;6.60;5.20;;;;;;;;;;4991493;28;20528;-72
2023/08/06 03:05:25;;;;;;;7.25;4.50;;;;;;;;;;4986638;28;20278;-72
2023/08/06 03:07:50;;;;;;;7.80;5.88;;;;;;;;;;4990454;28;20183;-73
2023/08/06 03:10:16;;;;;;;6.72;5.43;;;;;;;;;;4988749;28;20809;-73
2023/08/06 03:12:41;;;;;;;7.53;5.18;;;;;;;;;;4986144;28;20711;-73
2023/08/06 03:15:06;;;;;;;7.40;5.68;;;;;;;;;;4988255;28;20197;-71
2023/08/06 03:17:32;;;;;;;9.90;5.43;;;;;;;;;;4990686;28;20206;-72
2023/08/06 03:19:57;;;;;;;10.80;5.80;;;;;;;;;;4973217;28;20198;-72
2023/08/06 03:22:22;;;;;;;9.25;5.47;;;;;;;;;;4989842;28;21111;-71
2023/08/06 03:24:50;;;;;;;9.40;5.28;;;;;;;;;;4986023;28;20218;-73
2023/08/06 03:27:15;;;;;;;7.75;5.13;;;;;;;;;;4990556;28;20587;-72
2023/08/06 03:29:40;;;;;;;7.43;4.88;;;;;;;;;;4989279;28;20182;-73
2023/08/06 03:32:06;;;;;;;7.03;5.60;;;;;;;;;;4989540;28;20223;-72
2023/08/06 03:34:31;;;;;;;8.25;4.95;;;;;;;;;;4988797;28;20317;-71
2023/08/06 03:36:56;;;;;;;7.38;5.30;;;;;;;;;;4986243;28;20183;-72
2023/08/06 03:39:21;;;;;;;7.22;5.18;;;;;;;;;;4989454;28;20697;-73
2023/08/06 03:41:46;;;;;;;7.25;5.07;;;;;;;;;;4990156;28;20202;-72
2023/08/06 03:44:12;;;;;;;6.72;4.88;;;;;;;;;;4987064;28;20670;-73
2023/08/06 03:46:37;;;;;;;8.73;5.28;;;;;;;;;;4989190;28;20721;-73
2023/08/06 03:49:02;;;;;;;5.82;4.85;;;;;;;;;;4988713;28;20270;-72
2023/08/06 03:51:28;;;;;;;6.10;5.22;;;;;;;;;;4988601;28;20763;-72
2023/08/06 03:53:53;;;;;;;6.13;4.88;;;;;;;;;;4987324;28;20187;-72
2023/08/06 03:56:18;;;;;;;6.95;5.20;;;;;;;;;;4990400;28;21111;-72
2023/08/06 03:58:43;;;;;;;6.32;4.85;;;;;;;;;;4989302;28;20666;-72
2023/08/06 04:01:08;;;;;;;7.05;5.38;;;;;;;;;;4988658;28;20233;-73
2023/08/06 04:03:34;;;;;;;6.20;5.13;;;;;;;;;;4990265;28;20207;-73
2023/08/06 04:05:59;;;;;;;5.25;4.63;;;;;;;;;;4989444;28;20610;-72
2023/08/06 04:08:24;;;;;;;10.02;5.43;;;;;;;;;;4989386;28;20864;-73
2023/08/06 04:10:51;;;;;;;6.10;5.10;;;;;;;;;;4984705;28;20208;-73
2023/08/06 04:13:16;;;;;;;6.80;4.95;;;;;;;;;;4972624;28;20321;-73
2023/08/06 04:15:41;;;;;;;6.88;5.22;;;;;;;;;;4990082;28;20244;-73
2023/08/06 04:18:06;;;;;;;7.35;5.00;;;;;;;;;;4990634;28;20253;-73
2023/08/06 04:20:32;;;;;;;5.50;4.40;;;;;;;;;;4988306;28;20201;-72
2023/08/06 04:22:57;;;;;;;6.18;4.88;;;;;;;;;;4989940;28;20179;-72
2023/08/06 04:25:23;;;;;;;5.10;4.40;;;;;;;;;;4988571;28;20204;-73
2023/08/06 04:27:48;;;;;;;6.07;5.18;;;;;;;;;;4989763;28;20714;-72
2023/08/06 04:30:13;;;;;;;6.60;4.75;;;;;;;;;;4989026;28;20210;-72
2023/08/06 04:32:39;;;;;;;6.32;5.35;;;;;;;;;;4988409;28;21056;-72
2023/08/06 04:35:04;;;;;;;6.10;5.45;;;;;;;;;;4988560;28;20195;-72
2023/08/06 04:37:30;;;;;;;8.18;5.85;;;;;;;;;;4989335;28;20199;-73
2023/08/06 04:39:55;;;;;;;7.65;5.60;;;;;;;;;;4988390;28;20643;-73
2023/08/06 04:42:20;;;;;;;7.22;5.18;;;;;;;;;;4987780;28;20703;-73
2023/08/06 04:44:45;;;;;;;7.15;5.95;;;;;;;;;;4988542;28;20888;-72
2023/08/06 04:47:10;;;;;;;7.32;5.95;;;;;;;;;;4971829;28;20186;-73
2023/08/06 04:49:36;;;;;;;6.03;5.00;;;;;;;;;;4970533;28;20393;-73
2023/08/06 04:52:01;;;;;;;5.85;5.22;;;;;;;;;;4971334;28;20582;-72
2023/08/06 04:54:26;;;;;;;6.03;4.88;;;;;;;;;;4987809;28;20187;-72
2023/08/06 04:56:51;;;;;;;6.78;5.18;;;;;;;;;;4989227;28;20591;-72
2023/08/06 04:59:16;;;;;;;5.97;4.93;;;;;;;;;;4969352;28;20592;-72
2023/08/06 05:01:42;;;;;;;5.82;4.60;;;;;;;;;;4987974;28;20214;-72
2023/08/06 05:04:07;;;;;;;4.55;3.60;;;;;;;;;;4971181;28;20290;-73
2023/08/06 05:06:32;;;;;;;5.60;4.07;;;;;;;;;;4988473;28;21120;-73
2023/08/06 05:08:57;;;;;;;4.40;3.67;;;;;;;;;;4971234;28;20277;-73
2023/08/06 05:11:24;;;;;;;5.63;3.80;;;;;;;;;;4982709;28;20570;-72
2023/08/06 05:13:49;;;;;;;4.22;3.20;;;;;;;;;;4973645;28;20734;-72
2023/08/06 05:16:14;;;;;;;4.28;2.83;;;;;;;;;;4988530;28;20190;-72
2023/08/06 05:18:40;;;;;;;4.38;2.70;;;;;;;;;;4988948;28;20190;-71
2023/08/06 05:21:06;;;;;;;4.32;3.28;;;;;;;;;;4969630;28;20207;-72
2023/08/06 05:23:31;;;;;;;7.88;2.65;;;;;;;;;;4988151;28;20573;-71
2023/08/06 05:25:56;;;;;;;3.80;2.55;;;;;;;;;;4988539;28;21193;-73
2023/08/06 05:28:21;;;;;;;3.33;2.60;;;;;;;;;;4985659;28;20272;-71
2023/08/06 05:30:46;;;;;;;2.70;2.00;;;;;;;;;;4986835;28;20262;-71
2023/08/06 05:33:12;;;;;;;6.25;2.55;;;;;;;;;;4989463;28;20186;-72
2023/08/06 05:35:37;;;;;;;3.13;2.53;;;;;;;;;;4987982;28;20275;-71
2023/08/06 05:38:02;;;;;;;2.22;1.98;;;;;;;;;;4970071;28;20190;-71
2023/08/06 05:40:27;;;;;;;2.45;1.90;;;;;;;;;;4987758;28;20191;-71
2023/08/06 05:42:54;;;;;;;4.88;2.45;;;;;;;;;;4968274;28;20618;-72
2023/08/06 05:45:19;;;;;;;3.30;2.50;;;;;;;;;;4970466;28;20217;-72
2023/08/06 05:47:44;;;;;;;3.47;2.83;;;;;;;;;;4988353;28;20630;-71
2023/08/06 05:50:09;;;;;;;3.72;2.50;;;;;;;;;;4987801;28;20219;-72
2023/08/06 05:52:34;;;;;;;2.65;2.45;;;;;;;;;;4987965;28;20203;-71
2023/08/06 05:55:00;;;;;;;3.28;2.97;;;;;;;;;;4970244;28;20183;-71
2023/08/06 05:57:25;;;;;;;3.63;3.08;;;;;;;;;;4986896;28;20672;-72
2023/08/06 05:59:50;;;;;;;4.70;2.78;;;;;;;;;;4985060;28;21092;-72
2023/08/06 06:02:16;;;;;;;2.60;2.40;;;;;;;;;;4964815;28;20210;-71
2023/08/06 06:04:41;;;;;;;3.45;2.60;;;;;;;;;;4969390;28;20206;-71
2023/08/06 06:07:06;;;;;;;3.25;2.15;;;;;;;;;;4988609;28;20178;-72
2023/08/06 06:09:32;;;;;;;2.05;1.83;;;;;;;;;;4987425;28;20184;-70
2023/08/06 06:11:57;;;;;;;2.05;1.70;;;;;;;;;;4987431;28;20205;-71
2023/08/06 06:14:22;;;;;;;3.13;2.30;;;;;;;;;;4986921;28;20178;-71
2023/08/06 06:16:47;;;;;;;2.05;1.83;;;;;;;;;;4984887;28;20234;-71
2023/08/06 06:19:13;;;;;;;2.28;1.80;;;;;;;;;;4987680;28;20191;-71
2023/08/06 06:21:38;;;;;;;2.45;1.83;;;;;;;;;;4986379;28;20211;-71
2023/08/06 06:24:04;;;;;;;3.13;2.00;;;;;;;;;;4984856;28;20293;-70
2023/08/06 06:26:30;;;;;;;2.72;2.10;;;;;;;;;;4966035;28;20184;-71
2023/08/06 06:28:55;;;;;;;2.60;2.40;;;;;;;;;;4987670;28;20179;-71
2023/08/06 06:31:20;;;;;;;3.53;3.00;;;;;;;;;;4987066;28;20245;-71
2023/08/06 06:33:45;;;;;;;3.75;3.08;;;;;;;;;;4987481;28;20187;-71
2023/08/06 06:36:11;;;;;;;4.43;3.65;;;;;;;;;;4982054;28;20331;-71
2023/08/06 06:38:36;;;;;;;4.47;3.28;;;;;;;;;;4967666;28;20294;-71
2023/08/06 06:41:03;;;;;;;4.85;3.75;;;;;;;;;;4986586;28;20207;-72
2023/08/06 06:43:28;;;;;;;4.75;4.10;;;;;;;;;;4985679;28;20198;-72
2023/08/06 06:45:55;;;;;;;4.30;3.75;;;;;;;;;;4969472;28;20722;-71
2023/08/06 06:48:21;;;;;;;5.78;4.30;;;;;;;;;;4987521;28;20263;-72
2023/08/06 06:50:49;;;;;;;5.82;3.65;;;;;;;;;;4985514;28;20696;-71
2023/08/06 06:53:14;;;;;;;5.32;4.03;;;;;;;;;;4985893;28;21050;-71
2023/08/06 06:55:39;;;;;;;4.70;4.22;;;;;;;;;;4982252;28;21058;-71
2023/08/06 06:58:05;;;;;;;5.20;4.07;;;;;;;;;;4968775;28;20237;-70
2023/08/06 07:00:30;;;;;;;8.55;4.78;;;;;;;;;;4984701;28;20242;-71
2023/08/06 07:02:55;;;;;;;6.00;5.25;;;;;;;;;;4984411;28;20271;-70
2023/08/06 07:05:20;;;;;;;4.93;4.05;;;;;;;;;;4964004;28;20254;-70
2023/08/06 07:07:45;;;;;;;5.43;3.83;;;;;;;;;;4985279;28;20622;-71
2023/08/06 07:10:11;;;;;;;7.65;4.07;;;;;;;;;;4987228;28;20274;-71
2023/08/06 07:12:36;;;;;;;5.38;3.60;;;;;;;;;;4986850;28;20289;-71
2023/08/06 07:15:03;;;;;;;4.95;3.72;;;;;;;;;;4969955;28;20501;-71
2023/08/06 07:17:28;;;;;;;5.97;4.18;;;;;;;;;;4984310;28;20208;-69
2023/08/06 07:19:53;;;;;;;5.60;4.28;;;;;;;;;;4987523;28;20321;-71
2023/08/06 07:22:18;;;;;;;6.40;4.60;;;;;;;;;;4987212;28;20202;-71
2023/08/06 07:24:44;;;;;;;7.65;4.07;;;;;;;;;;4966298;28;20306;-71
2023/08/06 07:27:09;;;;;;;6.10;4.80;;;;;;;;;;4986337;28;20183;-71
2023/08/06 07:29:34;;;;;;;6.22;4.47;;;;;;;;;;4986721;28;20614;-71
2023/08/06 07:31:59;;;;;;;5.65;4.43;;;;;;;;;;4970611;28;20942;-71
2023/08/06 07:34:25;;;;;;;7.18;4.28;;;;;;;;;;4989582;28;20195;-71
2023/08/06 07:36:50;;;;;;;5.18;4.32;;;;;;;;;;4989719;28;20188;-70
2023/08/06 07:39:16;;;;;;;6.15;4.35;;;;;;;;;;4987720;28;20219;-71
2023/08/06 07:41:42;;;;;;;6.75;4.68;;;;;;;;;;4989116;28;20214;-71
2023/08/06 07:44:07;;;;;;;5.88;4.50;;;;;;;;;;4986002;28;20202;-71
2023/08/06 07:46:32;;;;;;;6.53;4.30;;;;;;;;;;4990207;28;20190;-71
2023/08/06 07:48:57;;;;;;;7.20;4.30;;;;;;;;;;4988787;28;20192;-70
2023/08/06 07:51:22;;;;;;;4.85;3.60;;;;;;;;;;4989112;28;20230;-71
2023/08/06 07:53:48;;;;;;;6.07;4.15;;;;;;;;;;4989799;28;20191;-71
2023/08/06 07:56:13;;;;;;;8.20;4.32;;;;;;;;;;4990145;28;20195;-71
2023/08/06 07:58:38;;;;;;;6.47;3.88;;;;;;;;;;4970170;28;20199;-70
2023/08/06 08:01:03;;;;;;;5.75;4.25;;;;;;;;;;4971955;28;20302;-68
2023/08/06 08:03:28;;;;;;;6.75;4.65;;;;;;;;;;4987339;28;20201;-68
2023/08/06 08:05:57;;;;;;;6.93;3.83;;;;;;;;;;4990641;28;20187;-70
2023/08/06 08:08:22;;;;;;;8.40;4.80;;;;;;;;;;4992128;28;20271;-70
2023/08/06 08:10:47;;;;;;;7.50;4.18;;;;;;;;;;4990119;28;21038;-71
2023/08/06 08:13:12;;;;;;;8.70;3.67;;;;;;;;;;4970089;28;20183;-70
2023/08/06 08:15:38;;;;;;;7.22;3.90;;;;;;;;;;4991676;28;20198;-69
2023/08/06 08:18:03;;;;;;;6.28;3.90;;;;;;;;;;4991823;28;20201;-70
2023/08/06 08:20:31;;;;;;;5.88;3.95;;;;;;;;;;4992473;28;21050;-68
2023/08/06 08:22:57;;;;;;;4.88;3.35;;;;;;;;;;4978670;28;20226;-68
2023/08/06 08:25:22;;;;;;;6.53;3.30;;;;;;;;;;4963576;28;20928;-68
2023/08/06 08:27:47;;;;;;;6.93;3.08;;;;;;;;;;4976323;28;20307;-70
2023/08/06 08:30:13;;;;;;;6.85;2.90;;;;;;;;;;4975040;28;20266;-70
2023/08/06 08:32:38;;;;;;;5.72;2.55;;;;;;;;;;4997541;23;20241;-69
2023/08/06 08:35:03;;;;;;;8.55;3.42;;;;;;;;;;4990837;28;20645;-68
2023/08/06 08:37:28;;;;;;;7.28;2.60;;;;;;;;;;4993458;28;20186;-67
2023/08/06 08:39:54;;;;;;;4.00;2.65;;;;;;;;;;4991728;28;20189;-68
2023/08/06 08:42:19;;;;;;;3.63;2.63;;;;;;;;;;4992513;28;20213;-67
2023/08/06 08:44:45;;;;;;;4.97;2.58;;;;;;;;;;4977813;28;20913;-67
2023/08/06 08:47:10;;;;;;;5.03;2.60;;;;;;;;;;4991918;28;20186;-67
2023/08/06 08:49:36;;;;;;;5.03;2.33;;;;;;;;;;4991361;28;20198;-68
2023/08/06 08:52:02;;;;;;;4.75;2.72;;;;;;;;;;4991410;28;21864;-67
2023/08/06 08:54:28;;;;;;;4.15;2.25;;;;;;;;;;4975372;28;20949;-67
2023/08/06 08:56:54;;;;;;;3.83;2.42;;;;;;;;;;4992010;28;20838;-69
2023/08/06 08:59:20;;;;;;;4.70;2.40;;;;;;;;;;4992336;28;20731;-67
2023/08/06 09:01:46;;;;;;;3.63;1.95;;;;;;;;;;4991553;28;20410;-68
2023/08/06 09:04:11;;;;;;;8.13;1.90;;;;;;;;;;4994069;28;20202;-66
2023/08/06 09:06:38;;;;;;;5.22;2.00;;;;;;;;;;4991517;28;20266;-69
2023/08/06 09:09:11;;;;;;;2.90;2.10;;;;;;;;;;4993544;28;20182;-69
2023/08/06 09:11:40;;;;;;;5.32;2.13;;;;;;;;;;4968881;28;20666;-69
2023/08/06 09:14:09;;;;;;;4.55;1.75;;;;;;;;;;4994738;28;21630;-68
2023/08/06 09:16:35;;;;;;;3.95;1.20;;;;;;;;;;4972062;28;20277;-68
2023/08/06 09:19:10;;;;;;;4.90;1.70;;;;;;;;;;4989701;28;20213;-68
2023/08/06 09:21:39;;;;;;;2.78;1.40;;;;;;;;;;4971756;28;20320;-67
2023/08/06 09:24:13;;;;;;;4.47;1.60;;;;;;;;;;4990572;28;20210;-68
2023/08/06 09:26:39;;;;;;;4.32;1.40;;;;;;;;;;4989148;28;20190;-68
2023/08/06 09:29:08;;;;;;;1.40;1.10;;;;;;;;;;4990786;28;20183;-67
2023/08/06 09:31:39;;;;;;;3.40;1.50;;;;;;;;;;4991070;28;20218;-68
2023/08/06 09:34:10;;;;;;;2.17;1.23;;;;;;;;;;4990860;28;20182;-67
2023/08/06 09:36:39;;;;;;;1.80;0.80;;;;;;;;;;4993372;28;20661;-68
2023/08/06 09:39:12;;;;;;;2.55;1.10;;;;;;;;;;4990300;28;20845;-67
2023/08/06 09:41:37;;;;;;;3.15;1.10;;;;;;;;;;4990431;28;20206;-70
2023/08/06 09:44:02;;;;;;;2.47;1.55;;;;;;;;;;4993865;28;20209;-68
2023/08/06 09:46:28;;;;;;;2.00;1.00;;;;;;;;;;4991359;28;20189;-67
2023/08/06 09:48:53;;;;;;;2.55;0.80;;;;;;;;;;4990901;28;20200;-67
2023/08/06 09:51:18;;;;;;;3.70;1.38;;;;;;;;;;4970240;28;20202;-68
2023/08/06 09:53:44;;;;;;;3.28;1.02;;;;;;;;;;4988811;28;20272;-69
2023/08/06 09:56:10;;;;;;;2.85;0.60;;;;;;;;;;4972685;28;20294;-68
2023/08/06 09:58:36;;;;;;;1.45;0.68;;;;;;;;;;4988823;28;20187;-66
2023/08/06 10:01:02;;;;;;;1.45;1.02;;;;;;;;;;4972025;28;20240;-67
2023/08/06 10:03:28;;;;;;;2.55;0.75;;;;;;;;;;4990949;28;20245;-69
2023/08/06 10:05:55;;;;;;;1.42;0.60;;;;;;;;;;4990302;28;20583;-68
2023/08/06 10:08:20;;;;;;;1.20;0.50;;;;;;;;;;5002564;28;20186;-67
2023/08/06 10:10:45;;;;;;;1.58;0.63;;;;;;;;;;5006194;28;20182;-68
2023/08/06 10:13:12;;;;;;;0.75;0.52;;;;;;;;;;5007465;28;20232;-68
2023/08/06 10:15:38;;;;;;;6.45;0.95;;;;;;;;;;5006025;28;20282;-68
2023/08/06 10:18:04;;;;;;;3.35;1.30;;;;;;;;;;5004661;28;20698;-68
2023/08/06 10:20:33;;;;;;;2.72;0.90;;;;;;;;;;5003323;28;20190;-68
2023/08/06 10:23:02;;;;;;;2.92;1.38;;;;;;;;;;5007705;28;20953;-69
2023/08/06 10:25:30;;;;;;;2.40;1.00;;;;;;;;;;5004834;28;20221;-69
2023/08/06 10:27:56;;;;;;;2.95;1.00;;;;;;;;;;4985386;28;20900;-69
2023/08/06 10:30:21;;;;;;;1.48;1.00;;;;;;;;;;5005703;28;20183;-69
2023/08/06 10:32:48;;;;;;;3.50;1.35;;;;;;;;;;4989220;28;20273;-69
2023/08/06 10:35:32;;;;;;;2.53;1.10;;;;;;;;;;4989309;28;20186;-68
2023/08/06 10:38:03;;;;;;;3.25;1.33;;;;;;;;;;5005456;28;20217;-69
2023/08/06 10:40:29;;;;;;;1.60;0.90;;;;;;;;;;4987239;28;20201;-69
2023/08/06 10:42:54;;;;;;;1.92;1.08;;;;;;;;;;4981237;28;20293;-68
2023/08/06 10:45:20;;;;;;;3.70;0.98;;;;;;;;;;4991853;28;20220;-68
2023/08/06 10:47:46;;;;;;;2.42;1.13;;;;;;;;;;4974894;28;20722;-68
2023/08/06 10:50:12;;;;;;;1.60;0.93;;;;;;;;;;4971540;28;20190;-67
2023/08/06 10:52:38;;;;;;;1.88;1.00;;;;;;;;;;4987813;28;20198;-68
2023/08/06 10:55:03;;;;;;;4.20;1.30;;;;;;;;;;4989343;28;20677;-68
2023/08/06 10:57:28;;;;;;;2.58;1.20;;;;;;;;;;4990218;28;20194;-67
2023/08/06 10:59:54;;;;;;;4.32;1.23;;;;;;;;;;4984029;28;20186;-68
2023/08/06 11:02:19;;;;;;;2.58;1.38;;;;;;;;;;4974169;28;20206;-68
2023/08/06 11:04:44;;;;;;;4.10;1.13;;;;;;;;;;4971935;28;20207;-67
2023/08/06 11:07:10;;;;;;;3.92;1.05;;;;;;;;;;4993267;28;20202;-68
2023/08/06 11:09:35;;;;;;;3.60;1.00;;;;;;;;;;4973535;28;20209;-68
2023/08/06 11:12:00;;;;;;;1.73;1.60;;;;;;;;;;4990196;28;20203;-68
2023/08/06 11:14:25;;;;;;;4.13;1.48;;;;;;;;;;4993817;28;20194;-68
2023/08/06 11:16:51;;;;;;;5.53;1.58;;;;;;;;;;4991126;28;20732;-68
2023/08/06 11:19:16;;;;;;;3.00;1.25;;;;;;;;;;4992979;28;20710;-68
2023/08/06 11:21:43;;;;;;;2.05;0.95;;;;;;;;;;4991782;28;20198;-68
2023/08/06 11:24:10;;;;;;;4.75;1.45;;;;;;;;;;4986552;28;20261;-68
2023/08/06 11:26:36;;;;;;;3.72;2.15;;;;;;;;;;4975555;28;20186;-68
2023/08/06 11:29:02;;;;;;;1.92;1.08;;;;;;;;;;4992622;28;20178;-69
2023/08/06 11:31:27;;;;;;;1.67;1.27;;;;;;;;;;4991865;28;20218;-69
2023/08/06 11:33:53;;;;;;;1.42;0.98;;;;;;;;;;4991858;28;20222;-68
2023/08/06 11:36:31;;;;;;;2.60;1.00;;;;;;;;;;4991412;28;20183;-68
2023/08/06 11:38:56;;;;;;;1.92;0.93;;;;;;;;;;4993245;28;20240;-69
2023/08/06 11:41:22;;;;;;;3.08;1.13;;;;;;;;;;4993488;28;20778;-69
2023/08/06 11:43:47;;;;;;;2.55;1.17;;;;;;;;;;4994149;28;20380;-67
2023/08/06 11:46:12;;;;;;;1.10;1.00;;;;;;;;;;4993544;28;20179;-68
2023/08/06 11:48:54;;;;;;;2.88;1.13;;;;;;;;;;4971245;28;20309;-69
2023/08/06 11:51:22;;;;;;;4.03;1.45;;;;;;;;;;4993166;28;20229;-68
2023/08/06 11:53:51;;;;;;;1.75;0.80;;;;;;;;;;4993104;28;20205;-68
2023/08/06 11:56:16;;;;;;;2.88;1.08;;;;;;;;;;4991724;28;20187;-67
2023/08/06 11:58:42;;;;;;;2.75;1.33;;;;;;;;;;4991833;28;20256;-68
2023/08/06 12:01:07;;;;;;;3.42;1.10;;;;;;;;;;4993664;28;20257;-68
2023/08/06 12:03:32;;;;;;;2.13;1.05;;;;;;;;;;4994377;28;21471;-67
2023/08/06 12:05:58;;;;;;;1.45;0.70;;;;;;;;;;4990639;28;20215;-68
2023/08/06 12:08:26;;;;;;;1.65;0.90;;;;;;;;;;4987810;28;20656;-68
2023/08/06 12:10:53;;;;;;;3.92;0.68;;;;;;;;;;4990125;28;20191;-67
2023/08/06 12:13:18;;;;;;;1.60;0.98;;;;;;;;;;4993635;28;20232;-68
2023/08/06 12:15:44;;;;;;;2.85;0.80;;;;;;;;;;4991064;28;20614;-68
2023/08/06 12:18:09;;;;;;;2.08;0.80;;;;;;;;;;4990290;28;20218;-67
2023/08/06 12:20:35;;;;;;;2.42;0.75;;;;;;;;;;4989396;28;20313;-67
2023/08/06 12:23:00;;;;;;;1.08;0.60;;;;;;;;;;4991510;28;20604;-67
2023/08/06 12:25:25;;;;;;;2.03;0.65;;;;;;;;;;4991594;28;20221;-67
2023/08/06 12:27:51;;;;;;;0.80;0.50;;;;;;;;;;4991446;28;20187;-67
2023/08/06 12:30:16;;;;;;;3.85;0.55;;;;;;;;;;4990254;28;20182;-68
2023/08/06 12:32:41;;;;;;;1.77;0.30;;;;;;;;;;4991197;28;20221;-67
2023/08/06 12:35:07;;;;;;;1.00;0.50;;;;;;;;;;4990315;28;20723;-68
2023/08/06 12:37:32;;;;;;;1.80;0.70;;;;;;;;;;4974577;28;20213;-67
2023/08/06 12:39:57;;;;;;;0.90;0.57;;;;;;;;;;4991370;28;20282;-67
2023/08/06 12:42:24;;;;;;;1.20;0.63;;;;;;;;;;4991973;28;21941;-67
2023/08/06 12:44:49;;;;;;;1.25;0.50;;;;;;;;;;4993328;28;20845;-67
2023/08/06 12:47:15;;;;;;;3.50;0.98;;;;;;;;;;4971906;28;20191;-67
2023/08/06 12:49:40;;;;;;;1.40;0.43;;;;;;;;;;4989804;28;20222;-67
2023/08/06 12:52:07;;;;;;;2.15;0.50;;;;;;;;;;4991407;28;20817;-68
2023/08/06 12:54:38;;;;;;;1.92;0.55;;;;;;;;;;4973905;28;20898;-68
2023/08/06 12:57:04;;;;;;;2.25;0.70;;;;;;;;;;4990801;28;20898;-70
2023/08/06 12:59:29;;;;;;;1.58;0.52;;;;;;;;;;4990325;28;20185;-71
2023/08/06 13:01:55;;;;;;;1.20;0.70;;;;;;;;;;4986824;28;20210;-68
2023/08/06 13:04:20;;;;;;;1.33;0.68;;;;;;;;;;4993882;28;20207;-67
2023/08/06 13:06:45;;;;;;;1.30;0.55;;;;;;;;;;4990229;28;20304;-66
2023/08/06 13:09:11;;;;;;;0.77;0.63;;;;;;;;;;4990362;28;20274;-67
2023/08/06 13:11:37;;;;;;;2.25;0.63;;;;;;;;;;4991098;28;20202;-68
2023/08/06 13:14:10;;;;;;;0.93;0.40;;;;;;;;;;4993438;28;20183;-68
2023/08/06 13:16:36;;;;;;;2.92;0.60;;;;;;;;;;4993969;28;20183;-67
2023/08/06 13:19:01;;;;;;;1.92;0.60;;;;;;;;;;4990404;28;20261;-68
2023/08/06 13:21:31;;;;;;;1.13;0.57;;;;;;;;;;4990458;28;20206;-68
2023/08/06 13:23:56;;;;;;;1.40;0.63;;;;;;;;;;4989039;28;20259;-67
2023/08/06 13:26:21;;;;;;;0.50;0.43;;;;;;;;;;4990021;28;20858;-68
2023/08/06 13:28:47;;;;;;;0.57;0.50;;;;;;;;;;4990712;28;21696;-67
2023/08/06 13:31:13;;;;;;;0.70;0.50;;;;;;;;;;4988944;28;20623;-68
2023/08/06 13:33:38;;;;;;;0.73;0.60;;;;;;;;;;4989323;28;20195;-68
2023/08/06 13:36:03;;;;;;;1.23;0.80;;;;;;;;;;4990953;28;20191;-68
2023/08/06 13:38:28;;;;;;;1.17;0.55;;;;;;;;;;4972955;28;20190;-67
2023/08/06 13:40:53;;;;;;;0.80;0.45;;;;;;;;;;4990482;28;20687;-67
2023/08/06 13:43:19;;;;;;;0.73;0.50;;;;;;;;;;4992076;28;20276;-70
2023/08/06 13:45:44;;;;;;;2.67;0.60;;;;;;;;;;4991997;28;20205;-66
2023/08/06 13:48:10;;;;;;;3.60;0.63;;;;;;;;;;4988090;28;20665;-67
2023/08/06 13:50:35;;;;;;;0.90;0.40;;;;;;;;;;4971756;28;20183;-68
2023/08/06 13:53:02;;;;;;;1.60;0.43;;;;;;;;;;4990216;28;20216;-67
2023/08/06 13:55:27;;;;;;;3.17;0.55;;;;;;;;;;4971643;28;20554;-68
2023/08/06 13:57:52;;;;;;;0.95;0.70;;;;;;;;;;4989869;28;20258;-66
2023/08/06 14:00:17;;;;;;;1.88;0.70;;;;;;;;;;4991856;28;20182;-68
2023/08/06 14:02:44;;;;;;;2.95;0.80;;;;;;;;;;4993520;28;21020;-68
2023/08/06 14:05:09;;;;;;;2.20;0.70;;;;;;;;;;4988270;28;20211;-68
2023/08/06 14:07:35;;;;;;;2.95;0.77;;;;;;;;;;4988055;28;20233;-68
2023/08/06 14:10:00;;;;;;;2.58;0.80;;;;;;;;;;4988562;28;21722;-69
2023/08/06 14:12:25;;;;;;;3.25;0.73;;;;;;;;;;4991823;28;20715;-69
2023/08/06 14:14:50;;;;;;;3.15;0.90;;;;;;;;;;4996524;28;20183;-68
2023/08/06 14:17:16;;;;;;;1.75;0.82;;;;;;;;;;4988915;28;20226;-68
2023/08/06 14:19:41;;;;;;;1.10;0.88;;;;;;;;;;4989940;28;20295;-69
2023/08/06 14:22:06;;;;;;;2.53;1.08;;;;;;;;;;4988713;28;20292;-68
2023/08/06 14:24:31;;;;;;;3.08;1.23;;;;;;;;;;4973994;28;20222;-69
2023/08/06 14:26:56;;;;;;;5.28;1.02;;;;;;;;;;5002457;28;20183;-69
2023/08/06 14:29:22;;;;;;;0.95;0.60;;;;;;;;;;4974171;28;21047;-69
2023/08/06 14:31:47;;;;;;;2.08;0.80;;;;;;;;;;5002335;22;22042;-70
2023/08/06 14:34:12;;;;;;;2.58;1.15;;;;;;;;;;4990174;28;20199;-72